UAL44 KSFO-LSZH
Flight info
| Callsign | UAL44 |
|---|---|
| Flight time | N/A |
| Altitude | 33000 |
| Route | SNTNA2 ORRCA DCT FMG J94 LLC DCT TWF DCT MOT DCT YRL DCT VIRSO/N0493F350 DCT MCKEE DCT VESMI/M084F350 DCT 59N050W 60N040W 60N030W 59N020W DCT GOMUP/N0481F350 DCT GINGA/N0481F370 DCT MAKUX DCT SOSIM L15 KEPAD L151 TELBA/N0484F350 L151 MID UL612 VEULE DCT TEPRI UN491 POGZI DCT GELTA DCT MANAG DCT PEVIT DCT BLM |
| Aircraft | B77W/H-SDE1E2E3FGHIJ2J3J4J5M1RWXY/LB1D1 |
Departure
| Time | 2026-05-06 22:06 |
|---|---|
| Airport | San Francisco International Airport (KSFO) |
Arrival
| Time | N/A |
|---|---|
| Airport | Zürich Airport (LSZH) |
| Time | Latitude | Longitude | Altitude | Speed | Heading |
|---|---|---|---|---|---|
| 2026-05-06 21:44 | 37.61927 | -122.39324 | 27 ft | 0 kts | 208° |
| 2026-05-06 21:53 | 37.61930 | -122.39322 | 26 ft | 3 kts | 208° |
| 2026-05-06 21:53 | 37.61953 | -122.39307 | 24 ft | 3 kts | 208° |
| 2026-05-06 21:53 | 37.61972 | -122.39292 | 25 ft | 4 kts | 234° |
| 2026-05-06 21:54 | 37.61979 | -122.39263 | 24 ft | 4 kts | 283° |
| 2026-05-06 21:54 | 37.61970 | -122.39232 | 24 ft | 4 kts | 298° |
| 2026-05-06 21:54 | 37.61958 | -122.39204 | 26 ft | 4 kts | 298° |
| 2026-05-06 21:54 | 37.61947 | -122.39176 | 25 ft | 1 kts | 298° |
| 2026-05-06 21:55 | 37.61946 | -122.39175 | 25 ft | 0 kts | 298° |
| 2026-05-06 21:57 | 37.61960 | -122.39208 | 26 ft | 13 kts | 300° |
| 2026-05-06 21:58 | 37.62039 | -122.39228 | 27 ft | 13 kts | 23° |
| 2026-05-06 21:58 | 37.62121 | -122.39179 | 27 ft | 13 kts | 28° |
| 2026-05-06 21:58 | 37.62201 | -122.39125 | 27 ft | 13 kts | 30° |
| 2026-05-06 21:58 | 37.62256 | -122.39018 | 27 ft | 17 kts | 48° |
| 2026-05-06 21:59 | 37.62336 | -122.38933 | 27 ft | 11 kts | 74° |
| 2026-05-06 21:59 | 37.62303 | -122.38834 | 27 ft | 22 kts | 116° |
| 2026-05-06 21:59 | 37.62217 | -122.38627 | 27 ft | 27 kts | 120° |
| 2026-05-06 21:59 | 37.62130 | -122.38416 | 27 ft | 27 kts | 118° |
| 2026-05-06 22:00 | 37.62042 | -122.38206 | 27 ft | 27 kts | 118° |
| 2026-05-06 22:00 | 37.61952 | -122.37997 | 27 ft | 27 kts | 125° |
| 2026-05-06 22:00 | 37.61818 | -122.37831 | 27 ft | 27 kts | 118° |
| 2026-05-06 22:00 | 37.61751 | -122.37612 | 27 ft | 27 kts | 111° |
| 2026-05-06 22:01 | 37.61670 | -122.37398 | 27 ft | 27 kts | 117° |
| 2026-05-06 22:01 | 37.61583 | -122.37187 | 27 ft | 27 kts | 118° |
| 2026-05-06 22:01 | 37.61494 | -122.36978 | 27 ft | 27 kts | 118° |
| 2026-05-06 22:01 | 37.61375 | -122.36794 | 27 ft | 27 kts | 125° |
| 2026-05-06 22:02 | 37.61093 | -122.36132 | 27 ft | 27 kts | 118° |
| 2026-05-06 22:03 | 37.61062 | -122.35954 | 27 ft | 15 kts | 69° |
| 2026-05-06 22:03 | 37.61080 | -122.35924 | 27 ft | 0 kts | 41° |
| 2026-05-06 22:03 | 37.61116 | -122.35894 | 27 ft | 16 kts | 32° |
| 2026-05-06 22:03 | 37.61194 | -122.35890 | 27 ft | 7 kts | 299° |
| 2026-05-06 22:04 | 37.61196 | -122.35894 | 27 ft | 0 kts | 297° |
| 2026-05-06 22:05 | 37.61205 | -122.35916 | 27 ft | 12 kts | 296° |
| 2026-05-06 22:05 | 37.61344 | -122.36254 | 26 ft | 87 kts | 297° |
| 2026-05-06 22:05 | 37.61773 | -122.37274 | 27 ft | 175 kts | 298° |
| 2026-05-06 22:06 | 37.62415 | -122.38790 | 498 ft | 211 kts | 297° |
| 2026-05-06 22:06 | 37.63147 | -122.40504 | 1517 ft | 233 kts | 298° |
| 2026-05-06 22:06 | 37.63949 | -122.42396 | 2556 ft | 246 kts | 299° |
| 2026-05-06 22:06 | 37.64759 | -122.44289 | 3134 ft | 256 kts | 299° |
| 2026-05-06 22:07 | 37.65622 | -122.46289 | 3847 ft | 260 kts | 300° |
| 2026-05-06 22:07 | 37.66487 | -122.48287 | 4637 ft | 261 kts | 301° |
| 2026-05-06 22:07 | 37.67377 | -122.50305 | 5376 ft | 265 kts | 305° |
| 2026-05-06 22:07 | 37.68700 | -122.51910 | 5884 ft | 268 kts | 337° |
| 2026-05-06 22:08 | 37.70475 | -122.52509 | 6587 ft | 265 kts | 358° |
| 2026-05-06 22:08 | 37.72348 | -122.52574 | 7129 ft | 271 kts | 359° |
| 2026-05-06 22:08 | 37.74240 | -122.52631 | 7846 ft | 272 kts | 359° |
| 2026-05-06 22:08 | 37.76150 | -122.52695 | 8505 ft | 277 kts | 359° |
| 2026-05-06 22:09 | 37.78059 | -122.52727 | 9295 ft | 272 kts | 5° |
| 2026-05-06 22:09 | 37.79865 | -122.52004 | 9825 ft | 278 kts | 33° |
| 2026-05-06 22:09 | 37.81289 | -122.50321 | 10330 ft | 287 kts | 54° |
| 2026-05-06 22:09 | 37.82253 | -122.48012 | 10529 ft | 308 kts | 65° |
| 2026-05-06 22:10 | 37.83135 | -122.45434 | 10714 ft | 331 kts | 65° |
| 2026-05-06 22:10 | 37.84133 | -122.42766 | 10829 ft | 348 kts | 56° |
| 2026-05-06 22:10 | 37.85669 | -122.40310 | 11163 ft | 363 kts | 47° |
| 2026-05-06 22:10 | 37.87381 | -122.37949 | 11808 ft | 368 kts | 47° |
| 2026-05-06 22:11 | 37.89129 | -122.35543 | 12562 ft | 370 kts | 48° |
| 2026-05-06 22:11 | 37.90868 | -122.33121 | 13341 ft | 374 kts | 48° |
| 2026-05-06 22:11 | 37.92616 | -122.30658 | 14063 ft | 377 kts | 49° |
| 2026-05-06 22:11 | 37.94377 | -122.28153 | 14637 ft | 383 kts | 49° |
| 2026-05-06 22:12 | 37.96153 | -122.25607 | 15267 ft | 387 kts | 49° |
| 2026-05-06 22:12 | 37.97941 | -122.23033 | 15908 ft | 392 kts | 49° |
| 2026-05-06 22:12 | 37.99752 | -122.20419 | 16521 ft | 397 kts | 49° |
| 2026-05-06 22:12 | 38.01576 | -122.17781 | 17216 ft | 400 kts | 49° |
| 2026-05-06 22:13 | 38.03418 | -122.15115 | 17922 ft | 403 kts | 49° |
| 2026-05-06 22:13 | 38.05248 | -122.12463 | 18554 ft | 407 kts | 49° |
| 2026-05-06 22:13 | 38.07145 | -122.09712 | 19105 ft | 411 kts | 49° |
| 2026-05-06 22:13 | 38.09008 | -122.07009 | 19677 ft | 414 kts | 49° |
| 2026-05-06 22:14 | 38.10911 | -122.04244 | 20223 ft | 418 kts | 48° |
| 2026-05-06 22:14 | 38.12833 | -122.01450 | 20768 ft | 421 kts | 48° |
| 2026-05-06 22:14 | 38.14773 | -121.98628 | 21307 ft | 425 kts | 48° |
| 2026-05-06 22:14 | 38.16726 | -121.95784 | 21877 ft | 429 kts | 48° |
| 2026-05-06 22:15 | 38.18701 | -121.92906 | 22443 ft | 434 kts | 48° |
| 2026-05-06 22:15 | 38.20692 | -121.90001 | 22967 ft | 437 kts | 47° |
| 2026-05-06 22:15 | 38.22701 | -121.87067 | 23490 ft | 441 kts | 47° |
| 2026-05-06 22:15 | 38.24726 | -121.84107 | 23937 ft | 444 kts | 47° |
| 2026-05-06 22:16 | 38.26758 | -121.81135 | 24391 ft | 447 kts | 47° |
| 2026-05-06 22:16 | 38.28804 | -121.78138 | 24850 ft | 449 kts | 47° |
| 2026-05-06 22:16 | 38.30862 | -121.75120 | 25287 ft | 452 kts | 47° |
| 2026-05-06 22:16 | 38.32926 | -121.72092 | 25725 ft | 454 kts | 47° |
| 2026-05-06 22:17 | 38.35005 | -121.69039 | 26144 ft | 457 kts | 47° |
| 2026-05-06 22:17 | 38.37093 | -121.65969 | 26554 ft | 460 kts | 47° |
| 2026-05-06 22:17 | 38.39169 | -121.62914 | 26931 ft | 462 kts | 47° |
| 2026-05-06 22:17 | 38.41281 | -121.59804 | 27338 ft | 465 kts | 47° |
| 2026-05-06 22:18 | 38.43406 | -121.56671 | 27725 ft | 467 kts | 47° |
| 2026-05-06 22:18 | 38.45481 | -121.53462 | 28099 ft | 470 kts | 51° |
| 2026-05-06 22:18 | 38.47473 | -121.50130 | 28462 ft | 473 kts | 51° |
| 2026-05-06 22:18 | 38.49456 | -121.46748 | 28804 ft | 476 kts | 51° |
| 2026-05-06 22:19 | 38.51438 | -121.43344 | 29127 ft | 478 kts | 52° |
| 2026-05-06 22:19 | 38.53422 | -121.39933 | 29464 ft | 480 kts | 51° |
| 2026-05-06 22:19 | 38.55423 | -121.36500 | 29753 ft | 482 kts | 51° |
| 2026-05-06 22:19 | 38.57437 | -121.33053 | 30075 ft | 483 kts | 51° |
| 2026-05-06 22:20 | 38.59448 | -121.29614 | 30447 ft | 482 kts | 51° |
| 2026-05-06 22:20 | 38.61427 | -121.26231 | 30814 ft | 480 kts | 51° |
| 2026-05-06 22:20 | 38.63423 | -121.22816 | 31188 ft | 479 kts | 51° |
| 2026-05-06 22:20 | 38.65418 | -121.19402 | 31529 ft | 478 kts | 51° |
| 2026-05-06 22:21 | 38.67407 | -121.15995 | 31855 ft | 477 kts | 51° |
| 2026-05-06 22:21 | 38.69392 | -121.12591 | 32179 ft | 477 kts | 51° |
| 2026-05-06 22:21 | 38.71375 | -121.09187 | 32503 ft | 475 kts | 51° |
| 2026-05-06 22:21 | 38.73346 | -121.05799 | 32831 ft | 475 kts | 51° |
| 2026-05-06 22:22 | 38.75318 | -121.02405 | 33083 ft | 475 kts | 51° |
| 2026-05-06 22:22 | 38.77234 | -120.99106 | 33120 ft | 479 kts | 51° |
| 2026-05-06 22:22 | 38.81201 | -120.92262 | 33172 ft | 476 kts | 51° |
| 2026-05-06 22:23 | 38.86943 | -120.82325 | 33156 ft | 469 kts | 51° |
| 2026-05-06 22:23 | 38.94664 | -120.68921 | 33174 ft | 468 kts | 51° |
| 2026-05-06 22:24 | 39.02448 | -120.55352 | 33190 ft | 477 kts | 51° |
| 2026-05-06 22:24 | 39.10359 | -120.41500 | 33176 ft | 481 kts | 51° |
| 2026-05-06 22:25 | 39.18212 | -120.27689 | 33220 ft | 473 kts | 51° |
| 2026-05-06 22:25 | 39.25903 | -120.14105 | 33269 ft | 466 kts | 51° |
| 2026-05-06 22:26 | 39.33514 | -120.00609 | 33280 ft | 472 kts | 51° |
| 2026-05-06 22:26 | 39.37277 | -119.93915 | 33146 ft | 476 kts | 51° |
| 2026-05-06 22:26 | 39.41187 | -119.86944 | 33179 ft | 480 kts | 51° |
| 2026-05-06 22:27 | 39.49037 | -119.72896 | 33172 ft | 479 kts | 51° |
| 2026-05-06 22:27 | 39.56763 | -119.59045 | 33140 ft | 469 kts | 51° |
| 2026-05-06 22:28 | 39.64391 | -119.45399 | 33079 ft | 466 kts | 51° |
| 2026-05-06 22:28 | 39.71931 | -119.31832 | 33066 ft | 475 kts | 51° |
| 2026-05-06 22:29 | 39.79721 | -119.17752 | 33048 ft | 482 kts | 51° |
| 2026-05-06 22:29 | 39.87442 | -119.03731 | 33028 ft | 474 kts | 51° |
| 2026-05-06 22:30 | 39.94922 | -118.90089 | 33093 ft | 468 kts | 51° |
| 2026-05-06 22:30 | 40.02458 | -118.76292 | 33131 ft | 470 kts | 51° |
| 2026-05-06 22:31 | 40.10088 | -118.62256 | 33074 ft | 478 kts | 51° |
| 2026-05-06 22:31 | 40.18200 | -118.48404 | 33081 ft | 481 kts | 47° |
| 2026-05-06 22:32 | 40.26581 | -118.34827 | 33076 ft | 475 kts | 48° |
| 2026-05-06 22:32 | 40.34758 | -118.21408 | 33061 ft | 467 kts | 48° |
| 2026-05-06 22:33 | 40.42847 | -118.08074 | 33087 ft | 469 kts | 48° |
| 2026-05-06 22:33 | 40.50893 | -117.94757 | 33096 ft | 478 kts | 48° |
| 2026-05-06 22:34 | 40.59205 | -117.80934 | 33105 ft | 483 kts | 48° |
| 2026-05-06 22:34 | 40.67476 | -117.67110 | 33075 ft | 475 kts | 48° |
| 2026-05-06 22:35 | 40.75578 | -117.53512 | 33059 ft | 468 kts | 48° |
| 2026-05-06 22:35 | 40.83582 | -117.40036 | 33110 ft | 474 kts | 48° |
| 2026-05-06 22:36 | 40.91794 | -117.26141 | 33095 ft | 483 kts | 48° |
| 2026-05-06 22:36 | 41.00043 | -117.12105 | 33079 ft | 482 kts | 48° |
| 2026-05-06 22:37 | 41.08042 | -116.98436 | 33073 ft | 471 kts | 48° |
| 2026-05-06 22:37 | 41.16029 | -116.84738 | 33112 ft | 470 kts | 48° |
| 2026-05-06 22:38 | 41.24088 | -116.70858 | 33111 ft | 478 kts | 48° |
| 2026-05-06 22:38 | 41.32195 | -116.56821 | 33112 ft | 484 kts | 48° |
| 2026-05-06 22:39 | 41.40336 | -116.42654 | 33099 ft | 477 kts | 48° |
| 2026-05-06 22:39 | 41.48316 | -116.28708 | 33109 ft | 470 kts | 48° |
| 2026-05-06 22:40 | 41.56234 | -116.14816 | 33132 ft | 472 kts | 48° |
| 2026-05-06 22:40 | 41.64248 | -116.00690 | 33135 ft | 480 kts | 48° |
| 2026-05-06 22:41 | 41.76194 | -115.79489 | 33104 ft | 476 kts | 48° |
| 2026-05-06 22:42 | 41.90077 | -115.54682 | 33113 ft | 468 kts | 48° |
| 2026-05-06 22:42 | 42.05720 | -115.26487 | 33134 ft | 482 kts | 48° |
| 2026-05-06 22:43 | 42.21387 | -114.97962 | 33067 ft | 472 kts | 48° |
| 2026-05-06 22:43 | 42.36824 | -114.69610 | 33139 ft | 470 kts | 48° |
| 2026-05-06 22:44 | 42.52548 | -114.40535 | 33189 ft | 482 kts | 48° |
| 2026-05-06 22:44 | 42.60416 | -114.26084 | 33034 ft | 477 kts | 48° |
| 2026-05-06 22:44 | 42.68186 | -114.11708 | 33033 ft | 465 kts | 48° |
| 2026-05-06 22:45 | 42.83195 | -113.83772 | 33120 ft | 472 kts | 48° |
| 2026-05-06 22:45 | 42.98912 | -113.54204 | 33026 ft | 483 kts | 49° |
| 2026-05-06 22:46 | 43.14318 | -113.24930 | 32994 ft | 467 kts | 48° |
| 2026-05-06 22:46 | 43.29354 | -112.96109 | 33081 ft | 481 kts | 49° |
| 2026-05-06 22:47 | 43.44871 | -112.66026 | 33015 ft | 476 kts | 49° |
| 2026-05-06 22:47 | 43.59805 | -112.36812 | 33140 ft | 470 kts | 49° |
| 2026-05-06 22:48 | 43.75050 | -112.06677 | 33129 ft | 483 kts | 49° |
| 2026-05-06 22:48 | 43.89751 | -111.77302 | 33102 ft | 467 kts | 49° |
| 2026-05-06 22:49 | 44.04517 | -111.47534 | 33191 ft | 476 kts | 49° |
| 2026-05-06 22:49 | 44.19587 | -111.16800 | 33150 ft | 476 kts | 49° |
| 2026-05-06 22:50 | 44.33848 | -110.87421 | 33186 ft | 462 kts | 48° |
| 2026-05-06 22:50 | 44.48295 | -110.57378 | 33150 ft | 472 kts | 48° |
| 2026-05-06 22:51 | 44.62719 | -110.27021 | 33058 ft | 459 kts | 48° |
| 2026-05-06 22:51 | 44.74534 | -110.01967 | 33084 ft | 468 kts | 49° |
| 2026-05-06 22:52 | 44.88681 | -109.71634 | 33105 ft | 472 kts | 49° |
| 2026-05-06 22:52 | 45.02842 | -109.40930 | 33118 ft | 461 kts | 49° |
| 2026-05-06 22:52 | 45.09794 | -109.25756 | 32991 ft | 457 kts | 49° |
| 2026-05-06 22:53 | 45.16653 | -109.10693 | 33020 ft | 455 kts | 49° |
| 2026-05-06 22:53 | 45.30323 | -108.80457 | 33068 ft | 470 kts | 49° |
| 2026-05-06 22:53 | 45.37337 | -108.64792 | 32955 ft | 469 kts | 49° |
| 2026-05-06 22:54 | 45.44261 | -108.49239 | 32939 ft | 458 kts | 49° |
| 2026-05-06 22:54 | 45.57803 | -108.18637 | 33034 ft | 461 kts | 49° |
| 2026-05-06 22:55 | 45.71348 | -107.87645 | 32982 ft | 467 kts | 49° |
| 2026-05-06 22:55 | 45.84712 | -107.56738 | 33026 ft | 455 kts | 50° |
| 2026-05-06 22:56 | 45.98232 | -107.25146 | 33083 ft | 472 kts | 50° |
| 2026-05-06 22:56 | 46.11529 | -106.93668 | 32954 ft | 459 kts | 50° |
| 2026-05-06 22:57 | 46.24708 | -106.62177 | 33053 ft | 464 kts | 50° |
| 2026-05-06 22:57 | 46.38100 | -106.29752 | 32973 ft | 467 kts | 50° |
| 2026-05-06 22:57 | 46.44650 | -106.13750 | 32959 ft | 456 kts | 49° |
| 2026-05-06 22:58 | 46.50907 | -105.98407 | 33004 ft | 455 kts | 50° |
| 2026-05-06 22:58 | 46.63997 | -105.66018 | 33006 ft | 473 kts | 50° |
| 2026-05-06 22:59 | 46.76980 | -105.33443 | 32961 ft | 459 kts | 50° |
| 2026-05-06 22:59 | 46.89754 | -105.01089 | 33045 ft | 466 kts | 50° |
| 2026-05-06 23:00 | 47.02570 | -104.68182 | 33043 ft | 474 kts | 50° |
| 2026-05-06 23:00 | 47.15332 | -104.35006 | 32995 ft | 461 kts | 50° |
| 2026-05-06 23:01 | 47.28053 | -104.01581 | 33080 ft | 478 kts | 51° |
| 2026-05-06 23:01 | 47.40703 | -103.67844 | 33001 ft | 470 kts | 51° |
| 2026-05-06 23:02 | 47.53182 | -103.34213 | 33086 ft | 470 kts | 51° |
| 2026-05-06 23:02 | 47.65770 | -102.99807 | 33026 ft | 477 kts | 51° |
| 2026-05-06 23:03 | 47.71797 | -102.83157 | 33029 ft | 468 kts | 51° |
| 2026-05-06 23:03 | 47.75545 | -102.72778 | 33019 ft | 468 kts | 51° |
| 2026-05-06 23:04 | 47.81650 | -102.55772 | 33016 ft | 470 kts | 51° |
| 2026-05-06 23:04 | 47.87783 | -102.38566 | 33019 ft | 470 kts | 51° |
| 2026-05-06 23:05 | 47.93902 | -102.21285 | 33023 ft | 472 kts | 51° |
| 2026-05-06 23:05 | 48.00009 | -102.03923 | 33017 ft | 473 kts | 52° |
| 2026-05-06 23:06 | 48.05982 | -101.86832 | 33019 ft | 476 kts | 52° |
| 2026-05-06 23:06 | 48.12086 | -101.69242 | 33006 ft | 477 kts | 52° |
| 2026-05-06 23:07 | 48.18193 | -101.51529 | 32984 ft | 480 kts | 53° |
| 2026-05-06 23:07 | 48.24313 | -101.33655 | 32975 ft | 482 kts | 53° |
| 2026-05-06 23:08 | 48.31122 | -101.16578 | 33076 ft | 475 kts | 49° |
| 2026-05-06 23:08 | 48.38309 | -100.99906 | 33028 ft | 478 kts | 49° |
| 2026-05-06 23:09 | 48.45365 | -100.83257 | 33086 ft | 479 kts | 50° |
| 2026-05-06 23:09 | 48.52491 | -100.66329 | 33027 ft | 482 kts | 51° |
| 2026-05-06 23:10 | 48.59654 | -100.49207 | 33041 ft | 483 kts | 51° |
| 2026-05-06 23:10 | 48.66828 | -100.31956 | 33044 ft | 485 kts | 52° |
| 2026-05-06 23:11 | 48.73993 | -100.14608 | 33036 ft | 486 kts | 52° |
| 2026-05-06 23:11 | 48.81057 | -99.97395 | 33016 ft | 487 kts | 53° |
| 2026-05-06 23:12 | 48.88206 | -99.79863 | 33055 ft | 488 kts | 53° |
| 2026-05-06 23:12 | 48.95325 | -99.62292 | 33056 ft | 489 kts | 54° |
| 2026-05-06 23:13 | 49.02432 | -99.44629 | 33044 ft | 490 kts | 54° |
| 2026-05-06 23:13 | 49.09497 | -99.26954 | 33055 ft | 490 kts | 55° |
| 2026-05-06 23:14 | 49.16574 | -99.09129 | 33034 ft | 491 kts | 55° |
| 2026-05-06 23:14 | 49.23513 | -98.91536 | 33026 ft | 491 kts | 55° |
| 2026-05-06 23:15 | 49.30547 | -98.73582 | 33024 ft | 492 kts | 56° |
| 2026-05-06 23:15 | 49.37555 | -98.55570 | 33021 ft | 491 kts | 56° |
| 2026-05-06 23:16 | 49.44534 | -98.37513 | 33030 ft | 491 kts | 56° |
| 2026-05-06 23:16 | 49.51481 | -98.19410 | 33021 ft | 491 kts | 57° |
| 2026-05-06 23:17 | 49.58348 | -98.01394 | 33026 ft | 491 kts | 57° |
| 2026-05-06 23:17 | 49.65127 | -97.83488 | 33033 ft | 491 kts | 57° |
| 2026-05-06 23:18 | 49.71993 | -97.65223 | 33059 ft | 491 kts | 57° |
| 2026-05-06 23:18 | 49.78817 | -97.46942 | 33015 ft | 491 kts | 58° |
| 2026-05-06 23:19 | 49.85622 | -97.28583 | 33000 ft | 491 kts | 58° |
| 2026-05-06 23:19 | 49.92339 | -97.10335 | 33043 ft | 491 kts | 58° |
| 2026-05-06 23:20 | 49.98993 | -96.92129 | 33056 ft | 491 kts | 58° |
| 2026-05-06 23:20 | 50.05700 | -96.73646 | 33046 ft | 491 kts | 58° |
| 2026-05-06 23:21 | 50.12389 | -96.55082 | 33045 ft | 491 kts | 58° |
| 2026-05-06 23:21 | 50.19044 | -96.36476 | 33057 ft | 491 kts | 59° |
| 2026-05-06 23:22 | 50.25623 | -96.17949 | 33049 ft | 491 kts | 59° |
| 2026-05-06 23:22 | 50.32153 | -95.99430 | 33075 ft | 491 kts | 59° |
| 2026-05-06 23:23 | 50.38708 | -95.80698 | 33049 ft | 492 kts | 59° |
| 2026-05-06 23:23 | 50.45252 | -95.61862 | 33050 ft | 491 kts | 59° |
| 2026-05-06 23:24 | 50.51722 | -95.43102 | 33043 ft | 492 kts | 59° |
| 2026-05-06 23:24 | 50.58203 | -95.24167 | 33043 ft | 491 kts | 59° |
| 2026-05-06 23:25 | 50.64657 | -95.05169 | 33048 ft | 491 kts | 59° |
| 2026-05-06 23:25 | 50.70977 | -94.86426 | 33040 ft | 492 kts | 60° |
| 2026-05-06 23:26 | 50.77366 | -94.67336 | 33053 ft | 492 kts | 60° |
| 2026-05-06 23:26 | 50.83732 | -94.48167 | 33035 ft | 492 kts | 60° |
| 2026-05-06 23:27 | 50.90075 | -94.28922 | 33040 ft | 492 kts | 60° |
| 2026-05-06 23:27 | 50.96342 | -94.09760 | 33008 ft | 493 kts | 60° |
| 2026-05-06 23:27 | 50.99502 | -94.00043 | 33358 ft | 495 kts | 60° |
| 2026-05-06 23:28 | 51.02532 | -93.90686 | 33902 ft | 494 kts | 60° |
| 2026-05-06 23:28 | 51.05665 | -93.80977 | 34312 ft | 493 kts | 61° |
| 2026-05-06 23:28 | 51.08747 | -93.71209 | 34721 ft | 495 kts | 63° |
| 2026-05-06 23:28 | 51.11602 | -93.61245 | 34990 ft | 496 kts | 64° |
| 2026-05-06 23:29 | 51.14421 | -93.51162 | 35022 ft | 499 kts | 64° |
| 2026-05-06 23:29 | 51.20145 | -93.30894 | 35030 ft | 503 kts | 64° |
| 2026-05-06 23:30 | 51.25841 | -93.10701 | 35003 ft | 494 kts | 64° |
| 2026-05-06 23:30 | 51.31322 | -92.91091 | 35011 ft | 487 kts | 64° |
| 2026-05-06 23:31 | 51.36799 | -92.71333 | 35028 ft | 492 kts | 64° |
| 2026-05-06 23:31 | 51.42363 | -92.51084 | 35025 ft | 501 kts | 65° |
| 2026-05-06 23:32 | 51.47962 | -92.30525 | 35014 ft | 502 kts | 65° |
| 2026-05-06 23:32 | 51.53471 | -92.10112 | 34977 ft | 493 kts | 65° |
| 2026-05-06 23:33 | 51.58780 | -91.90277 | 35009 ft | 487 kts | 65° |
| 2026-05-06 23:33 | 51.64132 | -91.70107 | 35009 ft | 493 kts | 66° |
| 2026-05-06 23:34 | 51.69511 | -91.49651 | 34999 ft | 501 kts | 66° |
| 2026-05-06 23:34 | 51.74939 | -91.28814 | 34971 ft | 503 kts | 66° |
| 2026-05-06 23:35 | 51.80280 | -91.08123 | 34964 ft | 494 kts | 66° |
| 2026-05-06 23:35 | 51.85415 | -90.88054 | 34959 ft | 488 kts | 66° |
| 2026-05-06 23:36 | 51.90602 | -90.67599 | 34979 ft | 494 kts | 67° |
| 2026-05-06 23:36 | 51.95799 | -90.46916 | 34971 ft | 502 kts | 67° |
| 2026-05-06 23:37 | 52.01047 | -90.25825 | 34952 ft | 504 kts | 67° |
| 2026-05-06 23:37 | 52.06212 | -90.04869 | 34941 ft | 495 kts | 68° |
| 2026-05-06 23:38 | 52.10311 | -89.88100 | 34942 ft | 490 kts | 68° |
| 2026-05-06 23:38 | 52.15326 | -89.67406 | 34958 ft | 493 kts | 68° |
| 2026-05-06 23:39 | 52.20361 | -89.46431 | 34958 ft | 500 kts | 68° |
| 2026-05-06 23:39 | 52.25424 | -89.25129 | 34950 ft | 505 kts | 68° |
| 2026-05-06 23:40 | 52.30443 | -89.03804 | 34936 ft | 499 kts | 68° |
| 2026-05-06 23:40 | 52.35231 | -88.83258 | 34928 ft | 492 kts | 69° |
| 2026-05-06 23:41 | 52.40048 | -88.62389 | 34935 ft | 491 kts | 69° |
| 2026-05-06 23:41 | 52.44862 | -88.41327 | 34943 ft | 498 kts | 69° |
| 2026-05-06 23:42 | 52.49712 | -88.19892 | 34933 ft | 504 kts | 69° |
| 2026-05-06 23:42 | 52.54456 | -87.98709 | 34905 ft | 502 kts | 69° |
| 2026-05-06 23:43 | 52.59195 | -87.77332 | 34905 ft | 492 kts | 70° |
| 2026-05-06 23:43 | 52.63824 | -87.56233 | 34912 ft | 490 kts | 70° |
| 2026-05-06 23:44 | 52.68447 | -87.34950 | 34915 ft | 497 kts | 70° |
| 2026-05-06 23:44 | 52.73086 | -87.13367 | 34914 ft | 504 kts | 70° |
| 2026-05-06 23:45 | 52.77491 | -86.92652 | 34892 ft | 503 kts | 70° |
| 2026-05-06 23:45 | 52.80936 | -86.76310 | 34880 ft | 496 kts | 70° |
| 2026-05-06 23:46 | 52.83184 | -86.65568 | 34885 ft | 493 kts | 70° |
| 2026-05-06 23:46 | 52.85426 | -86.54805 | 34895 ft | 496 kts | 71° |
| 2026-05-06 23:47 | 52.87673 | -86.43954 | 34901 ft | 500 kts | 70° |
| 2026-05-06 23:47 | 52.89927 | -86.33014 | 34890 ft | 503 kts | 71° |
| 2026-05-06 23:48 | 52.92160 | -86.22113 | 34870 ft | 500 kts | 71° |
| 2026-05-06 23:48 | 52.94371 | -86.11255 | 34876 ft | 494 kts | 71° |
| 2026-05-06 23:49 | 52.96555 | -86.00478 | 34882 ft | 493 kts | 71° |
| 2026-05-06 23:49 | 52.98699 | -85.89842 | 34887 ft | 497 kts | 71° |
| 2026-05-06 23:50 | 53.00876 | -85.78977 | 34883 ft | 501 kts | 71° |
| 2026-05-06 23:50 | 53.04163 | -85.62462 | 34871 ft | 502 kts | 71° |
| 2026-05-06 23:51 | 53.06327 | -85.51506 | 34862 ft | 495 kts | 71° |
| 2026-05-06 23:51 | 53.08459 | -85.40653 | 34859 ft | 492 kts | 71° |
| 2026-05-06 23:52 | 53.10575 | -85.29825 | 34871 ft | 493 kts | 71° |
| 2026-05-06 23:52 | 53.12700 | -85.18893 | 34874 ft | 499 kts | 71° |
| 2026-05-06 23:53 | 53.14832 | -85.07855 | 34870 ft | 502 kts | 71° |
| 2026-05-06 23:53 | 53.16919 | -84.96987 | 34857 ft | 500 kts | 72° |
| 2026-05-06 23:54 | 53.19019 | -84.85990 | 34850 ft | 494 kts | 72° |
| 2026-05-06 23:54 | 53.21070 | -84.75186 | 34855 ft | 492 kts | 72° |
| 2026-05-06 23:55 | 53.23141 | -84.64220 | 34862 ft | 497 kts | 72° |
| 2026-05-06 23:55 | 53.25216 | -84.53164 | 34862 ft | 501 kts | 72° |
| 2026-05-06 23:56 | 53.27291 | -84.42037 | 34853 ft | 500 kts | 72° |
| 2026-05-06 23:56 | 53.29342 | -84.30982 | 34843 ft | 495 kts | 72° |
| 2026-05-06 23:57 | 53.31366 | -84.20000 | 34848 ft | 493 kts | 72° |
| 2026-05-06 23:57 | 53.33370 | -84.09067 | 34855 ft | 495 kts | 72° |
| 2026-05-06 23:58 | 53.35346 | -83.98216 | 34847 ft | 498 kts | 72° |
| 2026-05-06 23:58 | 53.37364 | -83.87079 | 34843 ft | 500 kts | 73° |
| 2026-05-06 23:59 | 53.39374 | -83.75912 | 34840 ft | 500 kts | 73° |
| 2026-05-06 23:59 | 53.41355 | -83.64834 | 34839 ft | 499 kts | 73° |
| 2026-05-07 00:00 | 53.43334 | -83.53701 | 34835 ft | 498 kts | 73° |
| 2026-05-07 00:00 | 53.45302 | -83.42569 | 34840 ft | 497 kts | 73° |
| 2026-05-07 00:01 | 53.47257 | -83.31437 | 34839 ft | 497 kts | 73° |
| 2026-05-07 00:01 | 53.49205 | -83.20276 | 34838 ft | 498 kts | 73° |
| 2026-05-07 00:02 | 53.51140 | -83.09118 | 34830 ft | 498 kts | 73° |
| 2026-05-07 00:02 | 53.53031 | -82.98145 | 34833 ft | 498 kts | 73° |
| 2026-05-07 00:03 | 53.54935 | -82.87032 | 34833 ft | 497 kts | 74° |
| 2026-05-07 00:03 | 53.56836 | -82.75861 | 34829 ft | 496 kts | 74° |
| 2026-05-07 00:04 | 53.58725 | -82.64688 | 34821 ft | 496 kts | 74° |
| 2026-05-07 00:04 | 53.60604 | -82.53504 | 34828 ft | 496 kts | 74° |
| 2026-05-07 00:05 | 53.62476 | -82.42292 | 34827 ft | 497 kts | 74° |
| 2026-05-07 00:05 | 53.64325 | -82.31144 | 34824 ft | 498 kts | 74° |
| 2026-05-07 00:06 | 53.66180 | -82.19888 | 34827 ft | 498 kts | 74° |
| 2026-05-07 00:06 | 53.67952 | -82.09069 | 34824 ft | 496 kts | 75° |
| 2026-05-07 00:07 | 53.69559 | -81.99191 | 34822 ft | 495 kts | 75° |
| 2026-05-07 00:07 | 53.71362 | -81.88042 | 34823 ft | 494 kts | 75° |
| 2026-05-07 00:08 | 53.73162 | -81.76838 | 34826 ft | 494 kts | 75° |
| 2026-05-07 00:08 | 53.74951 | -81.65630 | 34822 ft | 493 kts | 75° |
| 2026-05-07 00:09 | 53.76727 | -81.54428 | 34823 ft | 493 kts | 75° |
| 2026-05-07 00:09 | 53.78493 | -81.43210 | 34822 ft | 494 kts | 75° |
| 2026-05-07 00:10 | 53.80252 | -81.31964 | 34825 ft | 494 kts | 75° |
| 2026-05-07 00:10 | 53.81989 | -81.20778 | 34822 ft | 495 kts | 75° |
| 2026-05-07 00:11 | 53.83730 | -81.09497 | 34827 ft | 495 kts | 75° |
| 2026-05-07 00:11 | 53.85437 | -80.98356 | 34824 ft | 496 kts | 76° |
| 2026-05-07 00:12 | 53.87161 | -80.87020 | 34829 ft | 497 kts | 76° |
| 2026-05-07 00:12 | 53.88879 | -80.75650 | 34827 ft | 498 kts | 76° |
| 2026-05-07 00:13 | 53.90589 | -80.64250 | 34814 ft | 499 kts | 76° |
| 2026-05-07 00:13 | 53.92281 | -80.52890 | 34820 ft | 500 kts | 76° |
| 2026-05-07 00:14 | 53.93978 | -80.41416 | 34819 ft | 501 kts | 76° |
| 2026-05-07 00:14 | 53.95667 | -80.29909 | 34820 ft | 502 kts | 76° |
| 2026-05-07 00:15 | 53.97344 | -80.18402 | 34809 ft | 502 kts | 76° |
| 2026-05-07 00:15 | 53.99013 | -80.06878 | 34807 ft | 502 kts | 76° |
| 2026-05-07 00:16 | 54.01055 | -79.95796 | 34822 ft | 500 kts | 66° |
| 2026-05-07 00:16 | 54.04002 | -79.85064 | 34813 ft | 500 kts | 64° |
| 2026-05-07 00:17 | 54.06998 | -79.74358 | 34816 ft | 501 kts | 64° |
| 2026-05-07 00:17 | 54.09970 | -79.63566 | 34810 ft | 503 kts | 65° |
| 2026-05-07 00:18 | 54.12888 | -79.52815 | 34804 ft | 503 kts | 65° |
| 2026-05-07 00:18 | 54.15809 | -79.41967 | 34808 ft | 503 kts | 65° |
| 2026-05-07 00:19 | 54.18723 | -79.31097 | 34791 ft | 503 kts | 65° |
| 2026-05-07 00:19 | 54.21622 | -79.20242 | 34804 ft | 502 kts | 65° |
| 2026-05-07 00:20 | 54.24512 | -79.09368 | 34802 ft | 502 kts | 65° |
| 2026-05-07 00:20 | 54.27339 | -78.98680 | 34797 ft | 503 kts | 65° |
| 2026-05-07 00:21 | 54.30219 | -78.87744 | 34798 ft | 503 kts | 65° |
| 2026-05-07 00:21 | 54.33087 | -78.76797 | 34793 ft | 504 kts | 66° |
| 2026-05-07 00:22 | 54.35927 | -78.65907 | 34787 ft | 504 kts | 66° |
| 2026-05-07 00:22 | 54.38774 | -78.54933 | 34786 ft | 504 kts | 66° |
| 2026-05-07 00:23 | 54.41611 | -78.43947 | 34783 ft | 503 kts | 66° |
| 2026-05-07 00:23 | 54.44435 | -78.32954 | 34788 ft | 503 kts | 66° |
| 2026-05-07 00:24 | 54.47251 | -78.21943 | 34787 ft | 503 kts | 66° |
| 2026-05-07 00:24 | 54.49587 | -78.12765 | 34773 ft | 503 kts | 66° |
| 2026-05-07 00:25 | 54.52387 | -78.01713 | 34774 ft | 504 kts | 66° |
| 2026-05-07 00:25 | 54.55138 | -77.90802 | 34772 ft | 505 kts | 66° |
| 2026-05-07 00:26 | 54.57931 | -77.79669 | 34770 ft | 506 kts | 66° |
| 2026-05-07 00:26 | 54.60716 | -77.68514 | 34770 ft | 506 kts | 66° |
| 2026-05-07 00:27 | 54.63489 | -77.57349 | 34768 ft | 506 kts | 66° |
| 2026-05-07 00:27 | 54.66234 | -77.46241 | 34760 ft | 506 kts | 67° |
| 2026-05-07 00:28 | 54.68986 | -77.35045 | 34759 ft | 506 kts | 67° |
| 2026-05-07 00:28 | 54.71725 | -77.23848 | 34759 ft | 506 kts | 67° |
| 2026-05-07 00:29 | 54.74456 | -77.12624 | 34753 ft | 506 kts | 67° |
| 2026-05-07 00:30 | 54.79849 | -76.90293 | 34750 ft | 507 kts | 67° |
| 2026-05-07 00:30 | 54.82554 | -76.79002 | 34751 ft | 507 kts | 68° |
| 2026-05-07 00:31 | 54.85252 | -76.67685 | 34746 ft | 508 kts | 68° |
| 2026-05-07 00:31 | 54.87946 | -76.56325 | 34743 ft | 508 kts | 68° |
| 2026-05-07 00:32 | 54.90614 | -76.45010 | 34741 ft | 509 kts | 68° |
| 2026-05-07 00:32 | 54.93285 | -76.33628 | 34741 ft | 509 kts | 68° |
| 2026-05-07 00:33 | 54.95948 | -76.22216 | 34734 ft | 508 kts | 68° |
| 2026-05-07 00:33 | 54.98598 | -76.10801 | 34736 ft | 508 kts | 68° |
| 2026-05-07 00:34 | 55.01184 | -75.99603 | 34742 ft | 508 kts | 68° |
| 2026-05-07 00:34 | 55.03794 | -75.88240 | 34734 ft | 509 kts | 69° |
| 2026-05-07 00:35 | 55.06415 | -75.76765 | 34728 ft | 509 kts | 69° |
| 2026-05-07 00:35 | 55.09026 | -75.65276 | 34727 ft | 509 kts | 69° |
| 2026-05-07 00:36 | 55.11624 | -75.53781 | 34720 ft | 509 kts | 69° |
| 2026-05-07 00:36 | 55.14216 | -75.42244 | 34723 ft | 509 kts | 69° |
| 2026-05-07 00:37 | 55.16791 | -75.30723 | 34725 ft | 509 kts | 69° |
| 2026-05-07 00:37 | 55.19359 | -75.19173 | 34721 ft | 509 kts | 69° |
| 2026-05-07 00:38 | 55.21912 | -75.07621 | 34713 ft | 509 kts | 69° |
| 2026-05-07 00:38 | 55.24387 | -74.96363 | 34705 ft | 509 kts | 69° |
| 2026-05-07 00:39 | 55.26920 | -74.84776 | 34717 ft | 509 kts | 69° |
| 2026-05-07 00:39 | 55.29444 | -74.73168 | 34719 ft | 509 kts | 70° |
| 2026-05-07 00:40 | 55.31959 | -74.61533 | 34719 ft | 510 kts | 70° |
| 2026-05-07 00:40 | 55.34465 | -74.49874 | 34716 ft | 510 kts | 70° |
| 2026-05-07 00:41 | 55.36960 | -74.38201 | 34710 ft | 510 kts | 70° |
| 2026-05-07 00:41 | 55.39448 | -74.26491 | 34699 ft | 510 kts | 70° |
| 2026-05-07 00:42 | 55.41923 | -74.14780 | 34707 ft | 510 kts | 70° |
| 2026-05-07 00:42 | 55.44387 | -74.03048 | 34708 ft | 511 kts | 70° |
| 2026-05-07 00:43 | 55.46797 | -73.91510 | 34705 ft | 511 kts | 70° |
| 2026-05-07 00:43 | 55.49230 | -73.79795 | 34705 ft | 512 kts | 70° |
| 2026-05-07 00:44 | 55.51666 | -73.67995 | 34703 ft | 512 kts | 71° |
| 2026-05-07 00:44 | 55.54091 | -73.56177 | 34692 ft | 512 kts | 71° |
| 2026-05-07 00:45 | 55.56508 | -73.44331 | 34699 ft | 512 kts | 71° |
| 2026-05-07 00:45 | 55.58911 | -73.32478 | 34698 ft | 512 kts | 71° |
| 2026-05-07 00:46 | 55.61304 | -73.20607 | 34690 ft | 512 kts | 71° |
| 2026-05-07 00:46 | 55.63686 | -73.08719 | 34689 ft | 512 kts | 71° |
| 2026-05-07 00:47 | 55.66017 | -72.97018 | 34694 ft | 512 kts | 71° |
| 2026-05-07 00:47 | 55.68363 | -72.85169 | 34685 ft | 513 kts | 71° |
| 2026-05-07 00:48 | 55.70712 | -72.73231 | 34688 ft | 513 kts | 72° |
| 2026-05-07 00:48 | 55.73051 | -72.61270 | 34685 ft | 513 kts | 72° |
| 2026-05-07 00:49 | 55.75383 | -72.49270 | 34686 ft | 514 kts | 72° |
| 2026-05-07 00:49 | 55.77702 | -72.37265 | 34682 ft | 514 kts | 72° |
| 2026-05-07 00:50 | 55.80010 | -72.25245 | 34676 ft | 514 kts | 72° |
| 2026-05-07 00:50 | 55.82307 | -72.13200 | 34685 ft | 514 kts | 72° |
| 2026-05-07 00:51 | 55.84589 | -72.01159 | 34673 ft | 513 kts | 72° |
| 2026-05-07 00:51 | 55.86813 | -71.89353 | 34673 ft | 513 kts | 72° |
| 2026-05-07 00:52 | 55.89057 | -71.77364 | 34673 ft | 512 kts | 72° |
| 2026-05-07 00:52 | 55.91300 | -71.65308 | 34672 ft | 512 kts | 72° |
| 2026-05-07 00:53 | 55.93531 | -71.53234 | 34662 ft | 512 kts | 73° |
| 2026-05-07 00:53 | 55.95751 | -71.41141 | 34668 ft | 513 kts | 73° |
| 2026-05-07 00:54 | 55.97959 | -71.29040 | 34670 ft | 513 kts | 73° |
| 2026-05-07 00:54 | 56.00156 | -71.16918 | 34662 ft | 513 kts | 73° |
| 2026-05-07 00:55 | 56.02329 | -71.04850 | 34666 ft | 513 kts | 73° |
| 2026-05-07 00:55 | 56.04467 | -70.92897 | 34644 ft | 513 kts | 73° |
| 2026-05-07 00:56 | 56.06630 | -70.80722 | 34658 ft | 513 kts | 73° |
| 2026-05-07 00:56 | 56.08783 | -70.68525 | 34662 ft | 514 kts | 73° |
| 2026-05-07 00:57 | 56.10917 | -70.56357 | 34665 ft | 514 kts | 74° |
| 2026-05-07 00:57 | 56.13047 | -70.44122 | 34670 ft | 514 kts | 74° |
| 2026-05-07 00:58 | 56.15167 | -70.31868 | 34664 ft | 515 kts | 74° |
| 2026-05-07 00:58 | 56.17277 | -70.19589 | 34652 ft | 515 kts | 74° |
| 2026-05-07 00:59 | 56.20421 | -70.01127 | 34664 ft | 515 kts | 74° |
| 2026-05-07 01:00 | 56.22448 | -69.89129 | 34669 ft | 515 kts | 74° |
| 2026-05-07 01:00 | 56.24529 | -69.76714 | 34669 ft | 516 kts | 75° |
| 2026-05-07 01:01 | 56.26573 | -69.64440 | 34680 ft | 516 kts | 75° |
| 2026-05-07 01:01 | 56.28623 | -69.52044 | 34660 ft | 516 kts | 75° |
| 2026-05-07 01:02 | 56.30657 | -69.39656 | 34666 ft | 516 kts | 75° |
| 2026-05-07 01:02 | 56.32680 | -69.27248 | 34673 ft | 516 kts | 75° |
| 2026-05-07 01:03 | 56.34692 | -69.14816 | 34664 ft | 516 kts | 75° |
| 2026-05-07 01:03 | 56.36689 | -69.02381 | 34675 ft | 516 kts | 75° |
| 2026-05-07 01:04 | 56.38638 | -68.90167 | 34674 ft | 516 kts | 75° |
| 2026-05-07 01:04 | 56.40611 | -68.77708 | 34666 ft | 516 kts | 75° |
| 2026-05-07 01:05 | 56.42574 | -68.65219 | 34681 ft | 517 kts | 76° |
| 2026-05-07 01:05 | 56.44514 | -68.52782 | 34686 ft | 517 kts | 76° |
| 2026-05-07 01:06 | 56.46457 | -68.40234 | 34686 ft | 518 kts | 76° |
| 2026-05-07 01:06 | 56.48388 | -68.27676 | 34679 ft | 518 kts | 76° |
| 2026-05-07 01:07 | 56.50306 | -68.15102 | 34686 ft | 518 kts | 76° |
| 2026-05-07 01:07 | 56.52213 | -68.02503 | 34680 ft | 518 kts | 76° |
| 2026-05-07 01:08 | 56.54058 | -67.90218 | 34687 ft | 518 kts | 76° |
| 2026-05-07 01:08 | 56.55941 | -67.77587 | 34691 ft | 519 kts | 76° |
| 2026-05-07 01:09 | 56.57809 | -67.64954 | 34691 ft | 519 kts | 77° |
| 2026-05-07 01:09 | 56.59356 | -67.54426 | 34694 ft | 519 kts | 77° |
| 2026-05-07 01:10 | 56.61203 | -67.41754 | 34692 ft | 519 kts | 77° |
| 2026-05-07 01:10 | 56.63038 | -67.29066 | 34685 ft | 519 kts | 77° |
| 2026-05-07 01:11 | 56.64862 | -67.16348 | 34702 ft | 520 kts | 77° |
| 2026-05-07 01:11 | 56.66676 | -67.03617 | 34708 ft | 521 kts | 77° |
| 2026-05-07 01:12 | 56.68719 | -66.91206 | 34705 ft | 522 kts | 73° |
| 2026-05-07 01:12 | 56.71041 | -66.78768 | 34711 ft | 523 kts | 72° |
| 2026-05-07 01:13 | 56.73386 | -66.66233 | 34716 ft | 523 kts | 73° |
| 2026-05-07 01:13 | 56.75692 | -66.53658 | 34707 ft | 523 kts | 73° |
| 2026-05-07 01:14 | 56.77970 | -66.41051 | 34726 ft | 524 kts | 73° |
| 2026-05-07 01:14 | 56.80237 | -66.28393 | 34717 ft | 525 kts | 74° |
| 2026-05-07 01:15 | 56.82494 | -66.15714 | 34726 ft | 525 kts | 74° |
| 2026-05-07 01:15 | 56.84742 | -66.03014 | 34718 ft | 525 kts | 74° |
| 2026-05-07 01:16 | 56.86918 | -65.90638 | 34723 ft | 525 kts | 74° |
| 2026-05-07 01:16 | 56.89140 | -65.77905 | 34717 ft | 525 kts | 74° |
| 2026-05-07 01:17 | 56.91348 | -65.65163 | 34726 ft | 525 kts | 75° |
| 2026-05-07 01:17 | 56.93545 | -65.52395 | 34730 ft | 526 kts | 75° |
| 2026-05-07 01:18 | 56.95732 | -65.39597 | 34725 ft | 526 kts | 75° |
| 2026-05-07 01:18 | 56.97906 | -65.26787 | 34727 ft | 526 kts | 75° |
| 2026-05-07 01:19 | 57.00058 | -65.14006 | 34735 ft | 526 kts | 75° |
| 2026-05-07 01:19 | 57.02192 | -65.01250 | 34728 ft | 526 kts | 75° |
| 2026-05-07 01:20 | 57.04291 | -64.88608 | 34733 ft | 525 kts | 75° |
| 2026-05-07 01:20 | 57.06412 | -64.75738 | 34731 ft | 525 kts | 75° |
| 2026-05-07 01:21 | 57.08515 | -64.62883 | 34732 ft | 525 kts | 75° |
| 2026-05-07 01:21 | 57.10592 | -64.50097 | 34734 ft | 524 kts | 76° |
| 2026-05-07 01:22 | 57.12666 | -64.37233 | 34736 ft | 524 kts | 76° |
| 2026-05-07 01:22 | 57.14727 | -64.24346 | 34726 ft | 524 kts | 76° |
| 2026-05-07 01:23 | 57.16777 | -64.11436 | 34732 ft | 525 kts | 76° |
| 2026-05-07 01:23 | 57.18778 | -63.98740 | 34747 ft | 526 kts | 76° |
| 2026-05-07 01:24 | 57.20807 | -63.85764 | 34748 ft | 527 kts | 76° |
| 2026-05-07 01:24 | 57.22827 | -63.72753 | 34742 ft | 527 kts | 76° |
| 2026-05-07 01:25 | 57.24833 | -63.59727 | 34747 ft | 527 kts | 76° |
| 2026-05-07 01:25 | 57.26815 | -63.46758 | 34726 ft | 527 kts | 77° |
| 2026-05-07 01:26 | 57.28795 | -63.33703 | 34742 ft | 528 kts | 77° |
| 2026-05-07 01:26 | 57.30765 | -63.20599 | 34761 ft | 528 kts | 77° |
| 2026-05-07 01:27 | 57.32721 | -63.07492 | 34751 ft | 528 kts | 77° |
| 2026-05-07 01:27 | 57.34626 | -62.94628 | 34746 ft | 528 kts | 77° |
| 2026-05-07 01:28 | 57.36552 | -62.81510 | 34740 ft | 528 kts | 77° |
| 2026-05-07 01:28 | 57.38465 | -62.68377 | 34714 ft | 527 kts | 77° |
| 2026-05-07 01:29 | 57.40359 | -62.55264 | 34738 ft | 526 kts | 78° |
| 2026-05-07 01:29 | 57.42230 | -62.42200 | 34750 ft | 527 kts | 78° |
| 2026-05-07 01:30 | 57.44098 | -62.29055 | 34747 ft | 527 kts | 78° |
| 2026-05-07 01:30 | 57.45955 | -62.15880 | 34745 ft | 527 kts | 78° |
| 2026-05-07 01:31 | 57.47795 | -62.02714 | 34740 ft | 526 kts | 78° |
| 2026-05-07 01:31 | 57.49589 | -61.89764 | 34703 ft | 526 kts | 78° |
| 2026-05-07 01:32 | 57.51400 | -61.76575 | 34734 ft | 526 kts | 78° |
| 2026-05-07 01:32 | 57.53200 | -61.63362 | 34751 ft | 527 kts | 79° |
| 2026-05-07 01:33 | 57.54988 | -61.50117 | 34754 ft | 527 kts | 79° |
| 2026-05-07 01:33 | 57.56763 | -61.36859 | 34753 ft | 527 kts | 79° |
| 2026-05-07 01:34 | 57.58523 | -61.23594 | 34747 ft | 527 kts | 79° |
| 2026-05-07 01:34 | 57.60258 | -61.10398 | 34751 ft | 527 kts | 79° |
| 2026-05-07 01:35 | 57.61954 | -60.97383 | 34747 ft | 526 kts | 79° |
| 2026-05-07 01:35 | 57.63671 | -60.84092 | 34753 ft | 527 kts | 80° |
| 2026-05-07 01:36 | 57.65378 | -60.70761 | 34769 ft | 528 kts | 80° |
| 2026-05-07 01:36 | 57.67072 | -60.57396 | 34761 ft | 528 kts | 80° |
| 2026-05-07 01:37 | 57.68739 | -60.44133 | 34769 ft | 528 kts | 80° |
| 2026-05-07 01:37 | 57.70406 | -60.30749 | 34764 ft | 527 kts | 81° |
| 2026-05-07 01:38 | 57.72055 | -60.17377 | 34768 ft | 527 kts | 81° |
| 2026-05-07 01:38 | 57.73693 | -60.03964 | 34770 ft | 528 kts | 81° |
| 2026-05-07 01:39 | 57.75280 | -59.90848 | 34773 ft | 529 kts | 81° |
| 2026-05-07 01:39 | 57.76893 | -59.77390 | 34782 ft | 530 kts | 81° |
| 2026-05-07 01:40 | 57.78494 | -59.63901 | 34778 ft | 530 kts | 81° |
| 2026-05-07 01:40 | 57.80081 | -59.50399 | 34777 ft | 530 kts | 82° |
| 2026-05-07 01:41 | 57.81654 | -59.36885 | 34767 ft | 530 kts | 82° |
| 2026-05-07 01:41 | 57.83212 | -59.23361 | 34783 ft | 531 kts | 82° |
| 2026-05-07 01:42 | 57.84757 | -59.09805 | 34798 ft | 532 kts | 82° |
| 2026-05-07 01:42 | 57.86266 | -58.96436 | 34796 ft | 533 kts | 82° |
| 2026-05-07 01:43 | 57.87787 | -58.82821 | 34792 ft | 533 kts | 82° |
| 2026-05-07 01:43 | 57.89298 | -58.69156 | 34800 ft | 533 kts | 82° |
| 2026-05-07 01:44 | 57.90793 | -58.55487 | 34766 ft | 533 kts | 83° |
| 2026-05-07 01:44 | 57.92273 | -58.41818 | 34804 ft | 534 kts | 83° |
| 2026-05-07 01:45 | 57.93731 | -58.28191 | 34815 ft | 534 kts | 83° |
| 2026-05-07 01:45 | 57.95187 | -58.14460 | 34808 ft | 535 kts | 83° |
| 2026-05-07 01:46 | 57.96642 | -58.00742 | 34816 ft | 535 kts | 81° |
| 2026-05-07 01:46 | 57.98648 | -57.87419 | 34817 ft | 537 kts | 76° |
| 2026-05-07 01:47 | 58.00893 | -57.74015 | 34804 ft | 537 kts | 76° |
| 2026-05-07 01:47 | 58.03122 | -57.60566 | 34813 ft | 537 kts | 76° |
| 2026-05-07 01:48 | 58.05303 | -57.47064 | 34824 ft | 538 kts | 77° |
| 2026-05-07 01:48 | 58.07442 | -57.33613 | 34823 ft | 538 kts | 77° |
| 2026-05-07 01:49 | 58.09583 | -57.20041 | 34821 ft | 539 kts | 77° |
| 2026-05-07 01:49 | 58.11714 | -57.06442 | 34816 ft | 539 kts | 77° |
| 2026-05-07 01:50 | 58.13790 | -56.93094 | 34822 ft | 538 kts | 77° |
| 2026-05-07 01:50 | 58.15890 | -56.79490 | 34825 ft | 537 kts | 77° |
| 2026-05-07 01:51 | 58.17969 | -56.65915 | 34826 ft | 536 kts | 77° |
| 2026-05-07 01:51 | 58.20030 | -56.52338 | 34831 ft | 535 kts | 78° |
| 2026-05-07 01:52 | 58.22072 | -56.38782 | 34831 ft | 534 kts | 78° |
| 2026-05-07 01:52 | 58.24097 | -56.25222 | 34833 ft | 534 kts | 78° |
| 2026-05-07 01:53 | 58.26093 | -56.11743 | 34839 ft | 534 kts | 78° |
| 2026-05-07 01:53 | 58.28060 | -55.98357 | 34844 ft | 533 kts | 78° |
| 2026-05-07 01:54 | 58.30038 | -55.84786 | 34800 ft | 532 kts | 78° |
| 2026-05-07 01:54 | 58.31999 | -55.71212 | 34853 ft | 532 kts | 78° |
| 2026-05-07 01:55 | 58.33621 | -55.59897 | 34857 ft | 533 kts | 79° |
| 2026-05-07 01:55 | 58.35567 | -55.46216 | 34864 ft | 535 kts | 79° |
| 2026-05-07 01:56 | 58.37500 | -55.32506 | 34853 ft | 536 kts | 79° |
| 2026-05-07 01:56 | 58.39408 | -55.18862 | 34859 ft | 536 kts | 79° |
| 2026-05-07 01:57 | 58.41324 | -55.05046 | 34863 ft | 535 kts | 79° |
| 2026-05-07 01:57 | 58.43170 | -54.91614 | 34864 ft | 534 kts | 79° |
| 2026-05-07 01:58 | 58.45039 | -54.77889 | 34852 ft | 533 kts | 79° |
| 2026-05-07 01:58 | 58.46893 | -54.64144 | 34873 ft | 535 kts | 79° |
| 2026-05-07 01:59 | 58.48736 | -54.50362 | 34883 ft | 536 kts | 80° |
| 2026-05-07 01:59 | 58.50569 | -54.36538 | 34879 ft | 537 kts | 80° |
| 2026-05-07 02:00 | 58.52387 | -54.22692 | 34884 ft | 537 kts | 80° |
| 2026-05-07 02:00 | 58.54181 | -54.08910 | 34887 ft | 536 kts | 80° |
| 2026-05-07 02:01 | 58.55944 | -53.95244 | 34887 ft | 536 kts | 80° |
| 2026-05-07 02:01 | 58.57714 | -53.81381 | 34882 ft | 534 kts | 80° |
| 2026-05-07 02:02 | 58.59468 | -53.67519 | 34892 ft | 535 kts | 81° |
| 2026-05-07 02:02 | 58.61210 | -53.53621 | 34897 ft | 535 kts | 81° |
| 2026-05-07 02:03 | 58.62932 | -53.39743 | 34908 ft | 535 kts | 81° |
| 2026-05-07 02:03 | 58.64644 | -53.25813 | 34907 ft | 536 kts | 81° |
| 2026-05-07 02:04 | 58.66342 | -53.11870 | 34918 ft | 536 kts | 81° |
| 2026-05-07 02:04 | 58.67988 | -52.98211 | 34915 ft | 535 kts | 81° |
| 2026-05-07 02:05 | 58.69652 | -52.84270 | 34907 ft | 534 kts | 81° |
| 2026-05-07 02:05 | 58.71298 | -52.70347 | 34926 ft | 534 kts | 81° |
| 2026-05-07 02:06 | 58.72930 | -52.56386 | 34938 ft | 534 kts | 81° |
| 2026-05-07 02:06 | 58.74545 | -52.42437 | 34937 ft | 534 kts | 81° |
| 2026-05-07 02:07 | 58.76147 | -52.28460 | 34941 ft | 534 kts | 82° |
| 2026-05-07 02:07 | 58.78508 | -52.07588 | 34949 ft | 533 kts | 82° |
| 2026-05-07 02:08 | 58.80051 | -51.93770 | 34913 ft | 533 kts | 82° |
| 2026-05-07 02:08 | 58.81594 | -51.79807 | 34972 ft | 531 kts | 81° |
| 2026-05-07 02:09 | 58.83118 | -51.65855 | 34977 ft | 531 kts | 82° |
| 2026-05-07 02:09 | 58.84627 | -51.51900 | 34993 ft | 531 kts | 82° |
| 2026-05-07 02:10 | 58.86120 | -51.37934 | 34992 ft | 531 kts | 82° |
| 2026-05-07 02:10 | 58.87601 | -51.23937 | 35003 ft | 531 kts | 82° |
| 2026-05-07 02:11 | 58.89057 | -51.10017 | 35005 ft | 532 kts | 82° |
| 2026-05-07 02:11 | 58.90489 | -50.96178 | 35005 ft | 532 kts | 82° |
| 2026-05-07 02:12 | 58.91925 | -50.82142 | 35004 ft | 531 kts | 82° |
| 2026-05-07 02:12 | 58.93345 | -50.68103 | 35025 ft | 531 kts | 82° |
| 2026-05-07 02:13 | 58.94750 | -50.54039 | 35025 ft | 532 kts | 82° |
| 2026-05-07 02:13 | 58.96141 | -50.39961 | 35041 ft | 532 kts | 82° |
| 2026-05-07 02:14 | 58.97511 | -50.25934 | 35046 ft | 532 kts | 82° |
| 2026-05-07 02:14 | 58.98872 | -50.11842 | 35059 ft | 532 kts | 82° |
| 2026-05-07 02:15 | 59.00242 | -49.98014 | 35052 ft | 532 kts | 79° |
| 2026-05-07 02:15 | 59.02152 | -49.84121 | 35055 ft | 532 kts | 76° |
| 2026-05-07 02:16 | 59.04146 | -49.70291 | 35074 ft | 532 kts | 76° |
| 2026-05-07 02:16 | 59.06109 | -49.56425 | 35078 ft | 532 kts | 76° |
| 2026-05-07 02:17 | 59.08028 | -49.42540 | 35096 ft | 532 kts | 77° |
| 2026-05-07 02:17 | 59.09924 | -49.28622 | 35095 ft | 532 kts | 77° |
| 2026-05-07 02:18 | 59.11804 | -49.14698 | 35110 ft | 532 kts | 77° |
| 2026-05-07 02:18 | 59.13671 | -49.00760 | 35113 ft | 532 kts | 77° |
| 2026-05-07 02:19 | 59.15497 | -48.87010 | 35125 ft | 531 kts | 77° |
| 2026-05-07 02:19 | 59.17334 | -48.73057 | 35100 ft | 531 kts | 77° |
| 2026-05-07 02:20 | 59.19141 | -48.59197 | 35130 ft | 530 kts | 77° |
| 2026-05-07 02:20 | 59.20945 | -48.45238 | 35153 ft | 530 kts | 77° |
| 2026-05-07 02:21 | 59.22732 | -48.31281 | 35159 ft | 530 kts | 77° |
| 2026-05-07 02:21 | 59.24505 | -48.17295 | 35164 ft | 530 kts | 77° |
| 2026-05-07 02:22 | 59.26263 | -48.03294 | 35171 ft | 530 kts | 77° |
| 2026-05-07 02:22 | 59.27977 | -47.89512 | 35171 ft | 530 kts | 77° |
| 2026-05-07 02:23 | 59.29705 | -47.75489 | 35191 ft | 530 kts | 77° |
| 2026-05-07 02:23 | 59.31415 | -47.61471 | 35193 ft | 529 kts | 77° |
| 2026-05-07 02:24 | 59.33097 | -47.47544 | 35206 ft | 528 kts | 77° |
| 2026-05-07 02:24 | 59.34775 | -47.33523 | 35209 ft | 528 kts | 77° |
| 2026-05-07 02:25 | 59.36436 | -47.19497 | 35223 ft | 528 kts | 77° |
| 2026-05-07 02:25 | 59.38080 | -47.05478 | 35230 ft | 528 kts | 77° |
| 2026-05-07 02:26 | 59.39689 | -46.91611 | 35242 ft | 528 kts | 77° |
| 2026-05-07 02:26 | 59.41307 | -46.77532 | 35240 ft | 529 kts | 77° |
| 2026-05-07 02:27 | 59.42909 | -46.63434 | 35245 ft | 529 kts | 77° |
| 2026-05-07 02:27 | 59.44488 | -46.49409 | 35264 ft | 529 kts | 77° |
| 2026-05-07 02:28 | 59.46062 | -46.35272 | 35259 ft | 529 kts | 78° |
| 2026-05-07 02:28 | 59.47621 | -46.21110 | 35285 ft | 530 kts | 78° |
| 2026-05-07 02:29 | 59.49170 | -46.06898 | 35283 ft | 531 kts | 78° |
| 2026-05-07 02:29 | 59.50688 | -45.92821 | 35300 ft | 532 kts | 78° |
| 2026-05-07 02:30 | 59.52209 | -45.78556 | 35287 ft | 532 kts | 78° |
| 2026-05-07 02:30 | 59.53716 | -45.64259 | 35306 ft | 533 kts | 78° |
| 2026-05-07 02:31 | 59.55196 | -45.50058 | 35311 ft | 533 kts | 78° |
| 2026-05-07 02:31 | 59.56673 | -45.35731 | 35313 ft | 533 kts | 78° |
| 2026-05-07 02:32 | 59.58134 | -45.21398 | 35317 ft | 532 kts | 78° |
| 2026-05-07 02:32 | 59.59578 | -45.07059 | 35327 ft | 532 kts | 78° |
| 2026-05-07 02:33 | 59.60985 | -44.92920 | 35329 ft | 532 kts | 78° |
| 2026-05-07 02:33 | 59.62389 | -44.78646 | 35351 ft | 531 kts | 78° |
| 2026-05-07 02:34 | 59.63779 | -44.64342 | 35351 ft | 529 kts | 78° |
| 2026-05-07 02:34 | 59.65149 | -44.50070 | 35353 ft | 527 kts | 78° |
| 2026-05-07 02:35 | 59.66500 | -44.35837 | 35356 ft | 525 kts | 78° |
| 2026-05-07 02:35 | 59.67831 | -44.21629 | 35371 ft | 524 kts | 78° |
| 2026-05-07 02:36 | 59.69146 | -44.07432 | 35380 ft | 524 kts | 78° |
| 2026-05-07 02:36 | 59.70421 | -43.93476 | 35374 ft | 524 kts | 78° |
| 2026-05-07 02:37 | 59.71703 | -43.79278 | 35396 ft | 524 kts | 78° |
| 2026-05-07 02:37 | 59.72964 | -43.65138 | 35397 ft | 524 kts | 78° |
| 2026-05-07 02:38 | 59.74217 | -43.50901 | 35400 ft | 525 kts | 78° |
| 2026-05-07 02:38 | 59.75458 | -43.36613 | 35393 ft | 525 kts | 78° |
| 2026-05-07 02:39 | 59.76680 | -43.22343 | 35406 ft | 524 kts | 78° |
| 2026-05-07 02:39 | 59.77682 | -43.10503 | 35404 ft | 522 kts | 78° |
| 2026-05-07 02:40 | 59.78854 | -42.96483 | 35402 ft | 521 kts | 78° |
| 2026-05-07 02:40 | 59.80024 | -42.82309 | 35411 ft | 520 kts | 78° |
| 2026-05-07 02:41 | 59.80605 | -42.75198 | 35523 ft | 522 kts | 78° |
| 2026-05-07 02:41 | 59.81182 | -42.68081 | 35817 ft | 520 kts | 78° |
| 2026-05-07 02:41 | 59.81751 | -42.61003 | 36187 ft | 517 kts | 78° |
| 2026-05-07 02:41 | 59.82313 | -42.53961 | 36602 ft | 512 kts | 78° |
| 2026-05-07 02:42 | 59.82854 | -42.47123 | 37225 ft | 503 kts | 78° |
| 2026-05-07 02:42 | 59.83394 | -42.40258 | 37443 ft | 504 kts | 78° |
| 2026-05-07 02:42 | 59.84480 | -42.26391 | 37415 ft | 509 kts | 78° |
| 2026-05-07 02:43 | 59.85549 | -42.12496 | 37400 ft | 506 kts | 79° |
| 2026-05-07 02:43 | 59.86582 | -41.98862 | 37408 ft | 504 kts | 79° |
| 2026-05-07 02:44 | 59.87605 | -41.85169 | 37406 ft | 502 kts | 79° |
| 2026-05-07 02:44 | 59.88620 | -41.71395 | 37407 ft | 502 kts | 78° |
| 2026-05-07 02:45 | 59.89618 | -41.57652 | 37412 ft | 501 kts | 78° |
| 2026-05-07 02:45 | 59.90602 | -41.43890 | 37411 ft | 502 kts | 78° |
| 2026-05-07 02:46 | 59.91573 | -41.30109 | 37410 ft | 502 kts | 78° |
| 2026-05-07 02:46 | 59.92531 | -41.16280 | 37417 ft | 503 kts | 78° |
| 2026-05-07 02:47 | 59.93470 | -41.02516 | 37461 ft | 504 kts | 78° |
| 2026-05-07 02:47 | 59.94387 | -40.88872 | 37411 ft | 505 kts | 78° |
| 2026-05-07 02:48 | 59.95305 | -40.74979 | 37421 ft | 504 kts | 78° |
| 2026-05-07 02:48 | 59.96201 | -40.61183 | 37412 ft | 504 kts | 78° |
| 2026-05-07 02:49 | 59.97087 | -40.47320 | 37410 ft | 503 kts | 79° |
| 2026-05-07 02:49 | 59.97957 | -40.33470 | 37414 ft | 502 kts | 78° |
| 2026-05-07 02:50 | 59.98813 | -40.19615 | 37441 ft | 502 kts | 78° |
| 2026-05-07 02:50 | 59.99656 | -40.05770 | 37414 ft | 502 kts | 78° |
| 2026-05-07 02:51 | 60.00399 | -39.92168 | 37402 ft | 502 kts | 80° |
| 2026-05-07 02:51 | 60.00890 | -39.78235 | 37404 ft | 502 kts | 82° |
| 2026-05-07 02:52 | 60.01322 | -39.64393 | 37407 ft | 502 kts | 82° |
| 2026-05-07 02:52 | 60.01777 | -39.50455 | 37406 ft | 501 kts | 81° |
| 2026-05-07 02:53 | 60.02242 | -39.36541 | 37401 ft | 502 kts | 81° |
| 2026-05-07 02:53 | 60.02698 | -39.22620 | 37420 ft | 502 kts | 81° |
| 2026-05-07 02:54 | 60.03138 | -39.08687 | 37405 ft | 502 kts | 81° |
| 2026-05-07 02:54 | 60.03555 | -38.94977 | 37400 ft | 502 kts | 81° |
| 2026-05-07 02:55 | 60.03964 | -38.81044 | 37400 ft | 502 kts | 81° |
| 2026-05-07 02:55 | 60.04359 | -38.67087 | 37399 ft | 502 kts | 81° |
| 2026-05-07 02:56 | 60.04740 | -38.53107 | 37388 ft | 504 kts | 81° |
| 2026-05-07 02:56 | 60.05104 | -38.39190 | 37393 ft | 504 kts | 81° |
| 2026-05-07 02:57 | 60.05456 | -38.25174 | 37387 ft | 504 kts | 82° |
| 2026-05-07 02:57 | 60.05793 | -38.11136 | 37389 ft | 505 kts | 82° |
| 2026-05-07 02:58 | 60.06112 | -37.97292 | 37388 ft | 505 kts | 82° |
| 2026-05-07 02:58 | 60.06420 | -37.83213 | 37442 ft | 505 kts | 82° |
| 2026-05-07 02:59 | 60.06713 | -37.69205 | 37391 ft | 507 kts | 82° |
| 2026-05-07 02:59 | 60.06992 | -37.55088 | 37395 ft | 508 kts | 82° |
| 2026-05-07 03:00 | 60.07256 | -37.40949 | 37383 ft | 508 kts | 82° |
| 2026-05-07 03:00 | 60.07506 | -37.26791 | 37397 ft | 509 kts | 83° |
| 2026-05-07 03:01 | 60.07741 | -37.12629 | 37384 ft | 509 kts | 83° |
| 2026-05-07 03:01 | 60.07958 | -36.98669 | 37420 ft | 510 kts | 83° |
| 2026-05-07 03:02 | 60.08163 | -36.84530 | 37395 ft | 510 kts | 83° |
| 2026-05-07 03:02 | 60.08353 | -36.70309 | 37391 ft | 510 kts | 83° |
| 2026-05-07 03:03 | 60.08527 | -36.56089 | 37383 ft | 510 kts | 83° |
| 2026-05-07 03:03 | 60.08687 | -36.41855 | 37387 ft | 510 kts | 83° |
| 2026-05-07 03:04 | 60.08832 | -36.27654 | 37383 ft | 510 kts | 84° |
| 2026-05-07 03:04 | 60.08961 | -36.13431 | 37385 ft | 510 kts | 84° |
| 2026-05-07 03:05 | 60.09073 | -35.99512 | 37381 ft | 510 kts | 84° |
| 2026-05-07 03:05 | 60.09172 | -35.85301 | 37383 ft | 510 kts | 84° |
| 2026-05-07 03:06 | 60.09256 | -35.71090 | 37393 ft | 510 kts | 84° |
| 2026-05-07 03:06 | 60.09325 | -35.56863 | 37380 ft | 510 kts | 84° |
| 2026-05-07 03:07 | 60.09378 | -35.42718 | 37416 ft | 510 kts | 84° |
| 2026-05-07 03:07 | 60.09416 | -35.28479 | 37387 ft | 511 kts | 85° |
| 2026-05-07 03:08 | 60.09439 | -35.14232 | 37390 ft | 511 kts | 85° |
| 2026-05-07 03:08 | 60.09446 | -34.99978 | 37387 ft | 511 kts | 85° |
| 2026-05-07 03:09 | 60.09439 | -34.85880 | 37384 ft | 511 kts | 85° |
| 2026-05-07 03:09 | 60.09416 | -34.71642 | 37376 ft | 511 kts | 85° |
| 2026-05-07 03:10 | 60.09378 | -34.57498 | 37424 ft | 511 kts | 86° |
| 2026-05-07 03:10 | 60.09325 | -34.43242 | 37386 ft | 511 kts | 86° |
| 2026-05-07 03:11 | 60.09256 | -34.28999 | 37376 ft | 511 kts | 86° |
| 2026-05-07 03:11 | 60.09172 | -34.14754 | 37377 ft | 510 kts | 86° |
| 2026-05-07 03:12 | 60.09073 | -34.00546 | 37377 ft | 510 kts | 86° |
| 2026-05-07 03:12 | 60.08961 | -33.86565 | 37372 ft | 510 kts | 86° |
| 2026-05-07 03:13 | 60.08832 | -33.72357 | 37381 ft | 510 kts | 87° |
| 2026-05-07 03:13 | 60.08689 | -33.58250 | 37375 ft | 510 kts | 87° |
| 2026-05-07 03:14 | 60.08529 | -33.44049 | 37372 ft | 510 kts | 87° |
| 2026-05-07 03:15 | 60.08261 | -33.22747 | 37372 ft | 510 kts | 87° |
| 2026-05-07 03:15 | 60.08064 | -33.08544 | 37365 ft | 510 kts | 87° |
| 2026-05-07 03:16 | 60.07855 | -32.94583 | 37394 ft | 511 kts | 88° |
| 2026-05-07 03:16 | 60.07627 | -32.80353 | 37372 ft | 511 kts | 88° |
| 2026-05-07 03:17 | 60.07384 | -32.66207 | 37362 ft | 511 kts | 88° |
| 2026-05-07 03:17 | 60.07125 | -32.51994 | 37364 ft | 511 kts | 88° |
| 2026-05-07 03:18 | 60.06851 | -32.37779 | 37363 ft | 510 kts | 88° |
| 2026-05-07 03:18 | 60.06563 | -32.23578 | 37354 ft | 510 kts | 88° |
| 2026-05-07 03:19 | 60.06259 | -32.09380 | 37358 ft | 511 kts | 89° |
| 2026-05-07 03:19 | 60.05944 | -31.95386 | 37351 ft | 511 kts | 89° |
| 2026-05-07 03:20 | 60.05610 | -31.81197 | 37343 ft | 510 kts | 89° |
| 2026-05-07 03:20 | 60.05260 | -31.66988 | 37345 ft | 510 kts | 89° |
| 2026-05-07 03:21 | 60.04897 | -31.52885 | 37340 ft | 510 kts | 89° |
| 2026-05-07 03:21 | 60.04518 | -31.38709 | 37339 ft | 510 kts | 89° |
| 2026-05-07 03:22 | 60.04123 | -31.24524 | 37345 ft | 511 kts | 90° |
| 2026-05-07 03:22 | 60.03712 | -31.10334 | 37334 ft | 511 kts | 90° |
| 2026-05-07 03:23 | 60.03295 | -30.96428 | 37334 ft | 510 kts | 90° |
| 2026-05-07 03:23 | 60.02855 | -30.82251 | 37325 ft | 510 kts | 90° |
| 2026-05-07 03:24 | 60.02399 | -30.68077 | 37319 ft | 510 kts | 90° |
| 2026-05-07 03:24 | 60.01932 | -30.54005 | 37353 ft | 510 kts | 90° |
| 2026-05-07 03:25 | 60.01446 | -30.39827 | 37329 ft | 511 kts | 90° |
| 2026-05-07 03:25 | 60.00945 | -30.25670 | 37320 ft | 510 kts | 91° |
| 2026-05-07 03:26 | 60.00431 | -30.11523 | 37308 ft | 510 kts | 91° |
| 2026-05-07 03:26 | 59.99908 | -29.97683 | 37307 ft | 510 kts | 92° |
| 2026-05-07 03:27 | 59.99119 | -29.83587 | 37297 ft | 511 kts | 94° |
| 2026-05-07 03:27 | 59.98186 | -29.69500 | 37315 ft | 512 kts | 95° |
| 2026-05-07 03:28 | 59.97413 | -29.57776 | 37300 ft | 511 kts | 94° |
| 2026-05-07 03:28 | 59.96504 | -29.43698 | 37289 ft | 511 kts | 94° |
| 2026-05-07 03:29 | 59.95597 | -29.29623 | 37289 ft | 511 kts | 94° |
| 2026-05-07 03:29 | 59.94677 | -29.15574 | 37281 ft | 510 kts | 94° |
| 2026-05-07 03:30 | 59.93741 | -29.01544 | 37285 ft | 510 kts | 95° |
| 2026-05-07 03:30 | 59.92809 | -28.87816 | 37298 ft | 510 kts | 95° |
| 2026-05-07 03:31 | 59.91842 | -28.73805 | 37284 ft | 510 kts | 95° |
| 2026-05-07 03:31 | 59.90859 | -28.59786 | 37274 ft | 510 kts | 95° |
| 2026-05-07 03:32 | 59.89863 | -28.45795 | 37267 ft | 510 kts | 95° |
| 2026-05-07 03:32 | 59.88851 | -28.31807 | 37266 ft | 510 kts | 95° |